createdAt,value
2022-11-22T00:01:11.462Z,58.53
2022-11-22T00:03:37.815Z,58.66
2022-11-22T04:07:54.703Z,57.95
2022-11-22T04:10:22.493Z,57.99
2022-11-22T04:12:48.967Z,58.18
2022-11-22T04:15:15.343Z,58.10
2022-11-22T04:17:41.760Z,58.00
2022-11-22T04:20:08.164Z,58.08
2022-11-22T04:22:34.533Z,57.89
2022-11-22T04:25:00.905Z,57.96
2022-11-22T04:27:27.282Z,57.99
2022-11-22T04:29:53.646Z,58.12
2022-11-22T04:32:20.035Z,58.01
2022-11-22T04:34:46.432Z,57.86
2022-11-22T04:37:12.796Z,57.91
2022-11-22T04:39:39.158Z,57.91
2022-11-22T04:42:05.532Z,57.91
2022-11-22T04:44:31.914Z,57.79
2022-11-22T04:46:58.295Z,58.03
2022-11-22T04:49:24.670Z,57.83
2022-11-22T04:51:51.046Z,57.77
2022-11-22T04:54:17.456Z,57.88
2022-11-22T04:56:43.827Z,57.78
2022-11-22T04:59:10.192Z,57.91
2022-11-22T05:01:36.624Z,57.86
2022-11-22T05:04:03.049Z,58.02
2022-11-22T05:06:29.406Z,58.06
2022-11-22T05:08:55.779Z,57.95
2022-11-22T05:11:22.147Z,57.89
2022-11-22T05:13:48.517Z,57.87
2022-11-22T05:16:14.893Z,57.97
2022-11-22T05:18:41.336Z,57.90
2022-11-22T05:21:07.698Z,57.94
2022-11-22T05:23:34.073Z,57.92
2022-11-22T05:26:00.447Z,57.95
2022-11-22T05:28:26.829Z,57.95
2022-11-22T05:30:53.202Z,57.71
2022-11-22T05:33:19.566Z,57.98
2022-11-22T05:35:45.949Z,57.96
2022-11-22T05:38:12.312Z,57.78
2022-11-22T05:40:38.815Z,57.88
2022-11-22T05:43:05.175Z,57.86
2022-11-22T05:45:31.549Z,57.85
2022-11-22T05:47:57.917Z,57.85
2022-11-22T05:50:24.293Z,57.68
2022-11-22T05:52:50.663Z,57.74
2022-11-22T05:55:17.038Z,57.86
2022-11-22T05:57:43.402Z,57.80
2022-11-22T06:00:09.783Z,57.80
2022-11-22T06:02:36.181Z,58.00
2022-11-22T06:05:02.598Z,57.84
2022-11-22T06:07:29.041Z,58.09
2022-11-22T06:09:55.454Z,58.16
2022-11-22T06:12:21.815Z,58.03
2022-11-22T06:14:48.175Z,55.96
2022-11-22T06:17:14.568Z,58.07
2022-11-22T06:19:40.918Z,58.10
2022-11-22T06:22:07.288Z,58.00
2022-11-22T06:24:33.671Z,58.29
2022-11-22T06:27:00.043Z,58.17
2022-11-22T06:29:26.415Z,58.16
2022-11-22T06:31:52.914Z,58.25
2022-11-22T06:34:19.284Z,58.23
2022-11-22T06:36:45.650Z,58.29
2022-11-22T06:39:12.026Z,58.26
2022-11-22T06:41:38.384Z,58.30
2022-11-22T06:44:04.751Z,58.26
2022-11-22T06:46:31.131Z,58.20
2022-11-22T06:48:57.492Z,58.39
2022-11-22T06:51:23.854Z,58.25
2022-11-22T06:53:50.238Z,58.24
2022-11-22T06:56:16.610Z,58.31
2022-11-22T06:58:42.971Z,58.22
2022-11-22T07:01:09.377Z,58.24
2022-11-22T07:03:35.783Z,58.05
2022-11-22T07:06:02.151Z,57.49
2022-11-22T07:08:28.515Z,57.32
2022-11-22T07:10:54.879Z,57.27
2022-11-22T07:13:21.244Z,57.28
2022-11-22T07:15:47.594Z,57.46
2022-11-22T07:18:13.962Z,57.58
2022-11-22T07:20:40.334Z,57.59
2022-11-22T07:23:06.694Z,57.42
2022-11-22T07:25:33.062Z,57.67
2022-11-22T07:27:59.447Z,57.59
2022-11-22T07:30:25.832Z,57.59
2022-11-22T07:32:52.179Z,57.44
2022-11-22T07:35:18.539Z,57.58
2022-11-22T07:37:44.914Z,57.50
2022-11-22T07:40:11.267Z,57.55
2022-11-22T07:42:37.628Z,57.59
2022-11-22T07:45:03.995Z,57.65
2022-11-22T07:47:30.354Z,57.31
2022-11-22T07:49:56.734Z,57.46
2022-11-22T07:52:23.103Z,57.40
2022-11-22T07:54:49.456Z,57.36
2022-11-22T07:57:15.829Z,57.56
2022-11-22T07:59:42.203Z,57.39
2022-11-22T08:02:08.633Z,57.26
2022-11-22T08:04:35.033Z,57.43
2022-11-22T08:07:01.444Z,57.42
2022-11-22T08:09:27.999Z,57.32
2022-11-22T08:11:54.454Z,57.25
2022-11-22T08:14:20.835Z,57.20
2022-11-22T08:16:47.205Z,57.17
2022-11-22T08:19:13.576Z,57.10
2022-11-22T08:21:39.990Z,57.10
2022-11-22T08:24:06.351Z,57.11
2022-11-22T08:26:32.720Z,57.24
2022-11-22T08:28:59.083Z,57.20
2022-11-22T08:31:25.454Z,57.08
2022-11-22T08:33:51.843Z,57.02
2022-11-22T08:36:18.210Z,57.10
2022-11-22T08:38:44.600Z,57.02
2022-11-22T08:41:10.969Z,57.10
2022-11-22T08:43:37.346Z,57.15
2022-11-22T08:46:03.742Z,56.85
2022-11-22T08:48:30.100Z,57.00
2022-11-22T08:50:56.504Z,57.12
2022-11-22T08:53:22.886Z,57.04
2022-11-22T08:55:49.249Z,57.01
2022-11-22T08:58:15.629Z,56.94
2022-11-22T09:00:42.005Z,57.13
2022-11-22T09:03:08.370Z,57.00
2022-11-22T09:05:34.861Z,57.10
2022-11-22T09:10:47.610Z,57.03
2022-11-22T09:13:13.978Z,57.03
2022-11-22T09:15:40.334Z,56.84
2022-11-22T09:18:06.692Z,56.78
2022-11-22T09:20:33.067Z,56.83
2022-11-22T09:22:59.438Z,56.77
2022-11-22T09:25:25.815Z,56.91
2022-11-22T09:27:52.199Z,56.79
2022-11-22T09:30:18.575Z,56.83
2022-11-22T09:32:44.973Z,56.86
2022-11-22T09:35:11.349Z,56.77
2022-11-22T09:37:37.735Z,56.88
2022-11-22T09:40:04.122Z,56.69
2022-11-22T09:42:30.497Z,56.76
2022-11-22T09:44:56.883Z,56.72
2022-11-22T09:47:23.284Z,56.64
2022-11-22T09:49:49.661Z,56.41
2022-11-22T09:52:16.034Z,56.49
2022-11-22T09:54:42.415Z,56.48
2022-11-22T09:57:08.806Z,56.52
2022-11-22T09:59:35.194Z,56.41
2022-11-22T10:02:16.844Z,56.52
2022-11-22T10:04:43.698Z,56.42
2022-11-22T10:07:10.122Z,56.33
2022-11-22T10:09:36.514Z,56.39
2022-11-22T10:12:02.896Z,56.51
2022-11-22T10:14:29.265Z,56.41
2022-11-22T10:16:55.658Z,56.39
2022-11-22T10:19:22.056Z,56.32
2022-11-22T10:21:48.446Z,56.39
2022-11-22T10:24:14.839Z,56.21
2022-11-22T10:26:41.235Z,56.28
2022-11-22T10:29:07.594Z,56.21
2022-11-22T10:31:33.983Z,56.15
2022-11-22T10:34:00.362Z,55.93
2022-11-22T10:36:26.735Z,56.16
2022-11-22T10:38:53.224Z,56.01
2022-11-22T10:41:19.651Z,55.92
2022-11-22T10:43:46.064Z,56.13
2022-11-22T10:46:12.441Z,56.14
2022-11-22T10:48:38.830Z,56.11
2022-11-22T10:51:05.214Z,56.22
2022-11-22T10:53:31.587Z,56.00
2022-11-22T10:55:57.955Z,56.07
2022-11-22T10:58:24.341Z,55.84
2022-11-22T11:00:50.775Z,55.79
2022-11-22T11:03:17.171Z,54.54
2022-11-22T11:06:15.228Z,54.50
2022-11-22T11:08:54.448Z,53.84
2022-11-22T11:11:16.259Z,53.88
2022-11-22T11:13:42.643Z,53.80
2022-11-22T11:16:09.043Z,53.89
2022-11-22T11:18:35.415Z,53.81
2022-11-22T11:21:01.804Z,53.85
2022-11-22T11:23:28.196Z,54.49
2022-11-22T11:25:54.590Z,54.63
2022-11-22T11:28:21.042Z,54.67
2022-11-22T11:30:47.422Z,54.69
2022-11-22T11:33:13.795Z,54.71
2022-11-22T11:35:40.192Z,54.89
2022-11-22T11:38:06.559Z,54.86
2022-11-22T11:40:32.924Z,54.98
2022-11-22T11:42:59.299Z,55.12
2022-11-22T11:45:25.730Z,55.05
2022-11-22T11:47:52.109Z,55.25
2022-11-22T11:50:23.791Z,55.28
2022-11-22T11:52:50.867Z,55.26
2022-11-22T11:55:17.255Z,55.38
2022-11-22T11:57:43.649Z,55.28
2022-11-22T12:00:10.022Z,55.32
2022-11-22T12:02:36.461Z,55.35
2022-11-22T12:05:02.887Z,55.41
2022-11-22T12:07:29.313Z,55.45
2022-11-22T12:09:55.717Z,55.38
2022-11-22T12:12:22.111Z,55.58
2022-11-22T12:15:10.220Z,55.65
2022-11-22T12:17:34.891Z,55.55
2022-11-22T12:20:01.282Z,55.56
2022-11-22T12:22:48.928Z,55.76
2022-11-22T12:25:32.190Z,55.50
2022-11-22T12:27:59.470Z,55.61
2022-11-22T12:30:25.871Z,55.73
2022-11-22T12:32:52.265Z,55.89
2022-11-22T12:35:18.658Z,55.99
2022-11-22T12:37:45.050Z,55.64
2022-11-22T12:40:11.499Z,55.74
2022-11-22T12:42:37.959Z,55.61
2022-11-22T12:45:04.348Z,55.42
2022-11-22T12:47:30.746Z,55.45
2022-11-22T12:49:58.493Z,55.40
2022-11-22T12:52:26.248Z,55.38
2022-11-22T12:54:53.988Z,55.21
2022-11-22T12:57:21.755Z,55.15
2022-11-22T12:59:49.384Z,55.17
2022-11-22T13:02:17.125Z,55.04
2022-11-22T13:04:44.832Z,55.28
2022-11-22T13:07:11.838Z,55.21
2022-11-22T13:09:39.072Z,54.94
2022-11-22T13:12:06.486Z,55.07
2022-11-22T13:14:33.939Z,55.07
2022-11-22T13:17:01.659Z,55.13
2022-11-22T13:19:29.239Z,54.96
2022-11-22T13:21:56.904Z,54.92
2022-11-22T13:24:24.525Z,55.10
2022-11-22T13:26:50.918Z,55.07
2022-11-22T13:29:17.290Z,55.01
2022-11-22T13:31:43.692Z,55.04
2022-11-22T13:34:10.091Z,55.10
2022-11-22T13:36:36.460Z,54.94
2022-11-22T13:39:02.973Z,55.00
2022-11-22T13:41:29.354Z,55.02
2022-11-22T13:43:55.742Z,55.08
2022-11-22T13:46:22.128Z,54.97
2022-11-22T13:48:48.504Z,55.08
2022-11-22T13:51:14.901Z,54.83
2022-11-22T13:53:41.286Z,54.97
2022-11-22T13:56:07.679Z,55.03
2022-11-22T13:58:34.062Z,54.94
2022-11-22T14:01:00.481Z,54.86
2022-11-22T14:03:26.928Z,54.90
2022-11-22T14:05:53.298Z,55.06
2022-11-22T14:08:19.686Z,55.10
2022-11-22T14:10:46.059Z,54.90
2022-11-22T14:13:12.439Z,54.79
2022-11-22T14:15:38.820Z,54.74
2022-11-22T14:18:05.225Z,54.57
2022-11-22T14:20:31.609Z,54.64
2022-11-22T14:22:58.148Z,54.65
2022-11-22T14:25:24.552Z,54.82
2022-11-22T14:27:50.945Z,54.84
2022-11-22T14:30:17.343Z,54.62
2022-11-22T14:32:43.708Z,54.88
2022-11-22T14:35:10.089Z,54.73
2022-11-22T14:37:36.462Z,54.70
2022-11-22T14:40:02.948Z,54.91
2022-11-22T14:42:29.319Z,54.94
2022-11-22T14:44:55.691Z,54.77
2022-11-22T14:47:22.078Z,54.88
2022-11-22T14:49:48.457Z,54.77
2022-11-22T14:52:14.847Z,54.88
2022-11-22T14:54:41.246Z,54.89
2022-11-22T14:57:07.627Z,54.85
2022-11-22T14:59:34.043Z,54.88
2022-11-22T15:02:00.465Z,54.82
2022-11-22T15:09:13.831Z,54.94
2022-11-22T15:09:15.085Z,54.83
2022-11-22T15:09:59.810Z,54.95
2022-11-22T15:12:26.354Z,54.76
2022-11-22T15:14:52.739Z,54.80
2022-11-22T15:58:54.635Z,54.76
2022-11-22T16:01:21.152Z,54.83
2022-11-22T16:03:47.614Z,54.97
2022-11-22T16:06:13.996Z,54.95
2022-11-22T16:08:40.383Z,54.92
2022-11-22T16:11:06.907Z,54.98
2022-11-22T16:13:33.310Z,55.02
2022-11-22T16:15:59.701Z,54.82
2022-11-22T16:18:26.084Z,54.85
2022-11-22T16:20:52.566Z,54.81
2022-11-22T16:23:18.945Z,54.98
2022-11-22T16:25:45.327Z,55.04
2022-11-22T16:28:11.710Z,54.84
2022-11-22T16:30:38.080Z,54.77
2022-11-22T16:33:04.557Z,55.00
2022-11-22T16:35:31.046Z,54.90
2022-11-22T16:37:57.455Z,54.89
2022-11-22T16:40:23.835Z,54.92
2022-11-22T16:42:50.254Z,54.88
2022-11-22T16:45:16.654Z,54.63
2022-11-22T16:47:43.034Z,54.73
2022-11-22T16:50:09.414Z,54.79
2022-11-22T16:52:35.794Z,54.96
2022-11-22T16:55:02.171Z,54.82
2022-11-22T16:57:28.541Z,54.89
2022-11-22T16:59:54.932Z,54.74
2022-11-22T17:02:21.312Z,54.60
2022-11-22T17:04:47.700Z,54.58
2022-11-22T17:07:14.116Z,54.79
2022-11-22T17:09:40.570Z,54.79
2022-11-22T17:12:06.953Z,54.78
2022-11-22T17:14:33.751Z,54.99
2022-11-22T17:17:00.382Z,54.82
2022-11-22T17:22:13.216Z,54.84
2022-11-22T17:24:39.589Z,54.67
2022-11-22T17:27:05.974Z,54.89
2022-11-22T17:29:49.833Z,54.80
2022-11-22T17:32:16.942Z,54.84
2022-11-22T17:34:43.342Z,54.89
2022-11-22T17:37:09.728Z,54.82
2022-11-22T17:39:36.129Z,54.87
2022-11-22T17:42:02.524Z,54.78
2022-11-22T17:44:28.901Z,55.01
2022-11-22T17:46:55.291Z,54.93
2022-11-22T17:49:21.678Z,54.86
2022-11-22T17:51:48.053Z,54.76
2022-11-22T17:54:14.428Z,54.74
2022-11-22T17:56:40.820Z,55.10
2022-11-22T17:59:07.211Z,54.97
2022-11-22T18:01:33.615Z,54.86
2022-11-22T18:04:00.000Z,54.89
2022-11-22T18:06:26.604Z,55.07
2022-11-22T18:08:53.079Z,54.93
2022-11-22T18:11:19.490Z,54.90
2022-11-22T18:13:46.067Z,55.04
2022-11-22T18:16:12.443Z,54.89
2022-11-22T18:21:25.218Z,54.76
2022-11-22T18:23:51.585Z,54.81
2022-11-22T18:31:52.995Z,54.94
2022-11-22T18:34:19.916Z,54.83
2022-11-22T18:36:55.866Z,54.71
2022-11-22T18:39:23.798Z,54.89
2022-11-22T18:41:50.183Z,55.01
2022-11-22T18:44:16.571Z,54.87
2022-11-22T18:46:42.939Z,55.17
2022-11-22T18:49:09.325Z,54.82
2022-11-22T18:51:35.704Z,55.10
2022-11-22T18:54:02.093Z,55.44
2022-11-22T18:56:28.478Z,55.75
2022-11-22T18:58:54.954Z,56.04
2022-11-22T19:01:21.372Z,56.05
2022-11-22T19:03:47.772Z,56.33
2022-11-22T19:06:14.169Z,57.04
2022-11-22T19:08:40.542Z,57.07
2022-11-22T19:11:06.908Z,57.09
2022-11-22T19:13:33.295Z,57.34
2022-11-22T19:15:59.677Z,57.29
2022-11-22T19:18:26.228Z,57.06
2022-11-22T19:20:55.491Z,56.87
2022-11-22T19:23:22.116Z,56.83
2022-11-22T19:25:48.718Z,56.73
2022-11-22T19:28:15.093Z,56.86
2022-11-22T19:30:44.237Z,56.78
2022-11-22T19:33:10.853Z,56.96
2022-11-22T19:35:37.237Z,57.10
2022-11-22T19:38:03.607Z,56.96
2022-11-22T19:40:29.978Z,56.99
2022-11-22T19:42:56.356Z,57.00
2022-11-22T19:45:22.738Z,56.98
2022-11-22T19:47:49.111Z,57.03
2022-11-22T19:50:15.498Z,57.02
2022-11-22T19:52:41.879Z,56.97
2022-11-22T19:55:08.272Z,56.94
2022-11-22T19:57:34.651Z,56.91
2022-11-22T20:00:01.122Z,56.98
2022-11-22T20:02:27.511Z,56.61
2022-11-22T20:04:53.875Z,56.78
2022-11-22T20:07:20.279Z,56.51
2022-11-22T20:09:46.644Z,56.50
2022-11-22T20:12:13.013Z,56.66
2022-11-22T20:14:39.398Z,56.53
2022-11-22T20:17:05.791Z,56.73
2022-11-22T20:19:34.390Z,56.54
2022-11-22T20:22:01.090Z,56.62
2022-11-22T20:24:27.455Z,56.40
2022-11-22T20:26:53.835Z,56.67
2022-11-22T20:29:20.203Z,56.66
2022-11-22T20:31:46.597Z,56.57
2022-11-22T20:34:12.990Z,56.73
2022-11-22T20:36:39.382Z,56.57
2022-11-22T20:39:10.065Z,56.62
2022-11-22T20:41:37.219Z,56.50
2022-11-22T20:44:03.621Z,56.63
2022-11-22T20:46:30.007Z,56.61
2022-11-22T20:48:59.262Z,56.58
2022-11-22T20:51:25.630Z,56.48
2022-11-22T20:53:51.999Z,56.49
2022-11-22T20:56:18.387Z,56.48
2022-11-22T20:58:44.772Z,56.55
2022-11-22T21:01:11.206Z,56.51
2022-11-22T21:03:37.595Z,56.38
2022-11-22T21:06:03.980Z,56.53
2022-11-22T21:08:30.368Z,56.41
2022-11-22T21:10:56.739Z,56.49
2022-11-22T21:13:23.114Z,56.35
2022-11-22T21:15:49.484Z,56.31
2022-11-22T21:18:31.178Z,56.45
2022-11-22T21:20:57.597Z,56.56
2022-11-22T21:23:23.974Z,56.42
2022-11-22T21:25:50.407Z,56.38
2022-11-22T21:28:16.864Z,56.28
2022-11-22T21:30:43.230Z,56.17
2022-11-22T21:33:09.622Z,56.25
2022-11-22T21:35:36.087Z,56.29
2022-11-22T21:38:02.471Z,56.24
2022-11-22T21:40:28.855Z,56.23
2022-11-22T21:42:55.231Z,56.21
2022-11-22T21:45:21.620Z,56.19
2022-11-22T21:47:48.001Z,56.24
2022-11-22T21:50:14.390Z,56.08
2022-11-22T21:52:40.782Z,55.85
2022-11-22T21:55:07.178Z,55.76
2022-11-22T21:57:33.565Z,55.75
2022-11-22T21:59:59.940Z,56.48
2022-11-22T22:02:26.355Z,56.66
2022-11-22T22:04:52.738Z,56.55
2022-11-22T22:07:44.765Z,56.26
2022-11-22T22:10:05.470Z,55.97
2022-11-22T22:12:31.864Z,55.56
2022-11-22T22:14:58.246Z,55.39
2022-11-22T22:17:24.625Z,55.31
2022-11-22T22:19:51.002Z,55.53
2022-11-22T22:22:17.386Z,55.45
2022-11-22T22:24:43.770Z,55.57
2022-11-22T22:27:10.144Z,55.41
2022-11-22T22:29:36.526Z,55.35
2022-11-22T22:32:07.579Z,55.33
2022-11-22T22:34:36.713Z,55.36
2022-11-22T22:37:03.102Z,55.20
2022-11-22T22:39:29.606Z,55.26
2022-11-22T22:41:56.206Z,55.22
2022-11-22T22:44:22.586Z,55.18
2022-11-22T22:46:48.952Z,55.12
2022-11-22T22:49:15.319Z,55.33
2022-11-22T22:51:41.714Z,55.19
2022-11-22T22:54:08.106Z,55.32
2022-11-22T22:56:34.493Z,55.31
2022-11-22T22:59:01.306Z,55.52
2022-11-22T23:01:27.855Z,55.54
2022-11-22T23:03:54.226Z,55.90
2022-11-22T23:06:20.641Z,55.98
2022-11-22T23:08:47.009Z,56.11
2022-11-22T23:11:13.382Z,56.13
2022-11-22T23:13:39.753Z,56.32
2022-11-22T23:16:06.239Z,56.25
2022-11-22T23:18:32.633Z,56.25
2022-11-22T23:20:59.031Z,56.43
2022-11-22T23:23:25.419Z,56.23
2022-11-22T23:25:51.794Z,56.52
2022-11-22T23:28:18.179Z,56.38
2022-11-22T23:30:44.558Z,56.78
2022-11-22T23:33:10.944Z,56.95
2022-11-22T23:35:37.335Z,56.56
2022-11-22T23:38:03.727Z,56.76
2022-11-22T23:40:30.116Z,56.70
2022-11-22T23:42:56.483Z,56.60
2022-11-22T23:45:22.858Z,56.83
2022-11-22T23:47:49.246Z,56.95
2022-11-22T23:50:15.649Z,56.98
2022-11-22T23:52:42.016Z,57.02
2022-11-22T23:55:08.401Z,57.22
2022-11-22T23:57:34.778Z,57.02
